sensor_id;sensor_type;location;lat;lon;timestamp;temperature;humidity
20524;DHT22;10420;48.542;12.270;2022-09-21T00:02:14;5.70;99.90
20524;DHT22;10420;48.542;12.270;2022-09-21T00:07:15;5.50;99.90
20524;DHT22;10420;48.542;12.270;2022-09-21T00:12:15;5.50;99.90
20524;DHT22;10420;48.542;12.270;2022-09-21T00:17:16;5.40;99.90
20524;DHT22;10420;48.542;12.270;2022-09-21T00:22:17;5.60;99.90
20524;DHT22;10420;48.542;12.270;2022-09-21T00:27:17;5.60;99.90
20524;DHT22;10420;48.542;12.270;2022-09-21T00:32:18;5.50;99.90
20524;DHT22;10420;48.542;12.270;2022-09-21T00:37:19;5.60;99.90
20524;DHT22;10420;48.542;12.270;2022-09-21T00:42:21;5.50;99.90
20524;DHT22;10420;48.542;12.270;2022-09-21T00:52:31;5.30;99.90
20524;DHT22;10420;48.542;12.270;2022-09-21T00:57:33;5.10;99.90
20524;DHT22;10420;48.542;12.270;2022-09-21T01:02:36;5.40;99.90
20524;DHT22;10420;48.542;12.270;2022-09-21T01:07:41;5.30;99.90
20524;DHT22;10420;48.542;12.270;2022-09-21T01:13:17;5.20;99.90
20524;DHT22;10420;48.542;12.270;2022-09-21T01:29:14;4.90;99.90
20524;DHT22;10420;48.542;12.270;2022-09-21T01:34:39;5.00;99.90
20524;DHT22;10420;48.542;12.270;2022-09-21T01:39:45;4.90;99.90
20524;DHT22;10420;48.542;12.270;2022-09-21T01:44:48;4.80;99.90
20524;DHT22;10420;48.542;12.270;2022-09-21T01:49:52;4.80;99.90
20524;DHT22;10420;48.542;12.270;2022-09-21T01:54:59;4.80;99.90
20524;DHT22;10420;48.542;12.270;2022-09-21T02:00:00;4.60;99.90
20524;DHT22;10420;48.542;12.270;2022-09-21T02:05:02;4.60;99.90
20524;DHT22;10420;48.542;12.270;2022-09-21T02:10:04;4.50;99.90
20524;DHT22;10420;48.542;12.270;2022-09-21T02:15:07;4.70;99.90
20524;DHT22;10420;48.542;12.270;2022-09-21T02:20:22;4.70;99.90
20524;DHT22;10420;48.542;12.270;2022-09-21T02:30:34;4.60;99.90
20524;DHT22;10420;48.542;12.270;2022-09-21T02:35:57;4.60;99.90
20524;DHT22;10420;48.542;12.270;2022-09-21T02:46:20;4.30;99.90
20524;DHT22;10420;48.542;12.270;2022-09-21T02:51:34;4.30;99.90
20524;DHT22;10420;48.542;12.270;2022-09-21T02:56:36;4.20;99.90
20524;DHT22;10420;48.542;12.270;2022-09-21T03:01:39;4.30;99.90
20524;DHT22;10420;48.542;12.270;2022-09-21T03:06:40;4.20;99.90
20524;DHT22;10420;48.542;12.270;2022-09-21T03:11:41;4.20;99.90
20524;DHT22;10420;48.542;12.270;2022-09-21T03:16:42;4.20;99.90
20524;DHT22;10420;48.542;12.270;2022-09-21T03:21:43;4.30;99.90
20524;DHT22;10420;48.542;12.270;2022-09-21T03:26:43;4.20;99.90
20524;DHT22;10420;48.542;12.270;2022-09-21T03:31:44;4.20;99.90
20524;DHT22;10420;48.542;12.270;2022-09-21T03:36:45;4.10;99.90
20524;DHT22;10420;48.542;12.270;2022-09-21T03:41:45;4.10;99.90
20524;DHT22;10420;48.542;12.270;2022-09-21T03:46:46;4.00;99.90
20524;DHT22;10420;48.542;12.270;2022-09-21T03:51:46;4.00;99.90
20524;DHT22;10420;48.542;12.270;2022-09-21T03:56:48;3.90;99.90
20524;DHT22;10420;48.542;12.270;2022-09-21T04:01:49;3.90;99.90
20524;DHT22;10420;48.542;12.270;2022-09-21T04:06:50;4.00;99.90
20524;DHT22;10420;48.542;12.270;2022-09-21T04:11:51;4.00;99.90
20524;DHT22;10420;48.542;12.270;2022-09-21T04:16:53;4.00;99.90
20524;DHT22;10420;48.542;12.270;2022-09-21T04:21:53;4.00;99.90
20524;DHT22;10420;48.542;12.270;2022-09-21T04:26:55;3.90;99.90
20524;DHT22;10420;48.542;12.270;2022-09-21T04:31:56;3.90;99.90
20524;DHT22;10420;48.542;12.270;2022-09-21T04:36:57;3.90;99.90
20524;DHT22;10420;48.542;12.270;2022-09-21T04:41:58;3.90;99.90
20524;DHT22;10420;48.542;12.270;2022-09-21T04:46:59;3.80;99.90
20524;DHT22;10420;48.542;12.270;2022-09-21T04:52:00;3.60;99.90
20524;DHT22;10420;48.542;12.270;2022-09-21T04:57:00;3.70;99.90
20524;DHT22;10420;48.542;12.270;2022-09-21T05:02:01;3.70;99.90
20524;DHT22;10420;48.542;12.270;2022-09-21T05:07:02;3.60;99.90
20524;DHT22;10420;48.542;12.270;2022-09-21T05:12:02;3.70;99.90
20524;DHT22;10420;48.542;12.270;2022-09-21T05:17:03;3.60;99.90
20524;DHT22;10420;48.542;12.270;2022-09-21T05:22:04;3.70;99.90
20524;DHT22;10420;48.542;12.270;2022-09-21T05:27:05;4.00;99.90
20524;DHT22;10420;48.542;12.270;2022-09-21T05:38:15;3.80;99.90
20524;DHT22;10420;48.542;12.270;2022-09-21T05:43:13;4.00;99.90
20524;DHT22;10420;48.542;12.270;2022-09-21T05:48:29;4.00;99.90
20524;DHT22;10420;48.542;12.270;2022-09-21T05:53:47;4.00;99.90
20524;DHT22;10420;48.542;12.270;2022-09-21T06:04:29;4.40;99.90
20524;DHT22;10420;48.542;12.270;2022-09-21T06:09:30;4.90;99.90
20524;DHT22;10420;48.542;12.270;2022-09-21T06:14:30;6.00;99.90
20524;DHT22;10420;48.542;12.270;2022-09-21T06:19:31;9.30;99.90
20524;DHT22;10420;48.542;12.270;2022-09-21T06:24:32;11.80;99.90
20524;DHT22;10420;48.542;12.270;2022-09-21T06:29:32;12.90;99.90
20524;DHT22;10420;48.542;12.270;2022-09-21T06:34:33;10.70;99.90
20524;DHT22;10420;48.542;12.270;2022-09-21T06:39:34;9.40;99.90
20524;DHT22;10420;48.542;12.270;2022-09-21T06:44:35;9.50;99.90
20524;DHT22;10420;48.542;12.270;2022-09-21T06:49:35;10.80;99.90
20524;DHT22;10420;48.542;12.270;2022-09-21T06:54:36;9.90;99.90
20524;DHT22;10420;48.542;12.270;2022-09-21T06:59:38;13.00;99.90
20524;DHT22;10420;48.542;12.270;2022-09-21T07:04:38;16.00;99.90
20524;DHT22;10420;48.542;12.270;2022-09-21T07:09:39;14.00;99.90
20524;DHT22;10420;48.542;12.270;2022-09-21T07:14:39;13.20;99.90
20524;DHT22;10420;48.542;12.270;2022-09-21T07:19:40;13.50;99.90
20524;DHT22;10420;48.542;12.270;2022-09-21T07:24:41;13.90;99.90
20524;DHT22;10420;48.542;12.270;2022-09-21T07:29:41;13.00;99.90
20524;DHT22;10420;48.542;12.270;2022-09-21T07:34:43;11.70;99.90
20524;DHT22;10420;48.542;12.270;2022-09-21T07:39:43;11.00;99.90
20524;DHT22;10420;48.542;12.270;2022-09-21T07:44:47;10.60;99.90
20524;DHT22;10420;48.542;12.270;2022-09-21T07:49:48;11.50;99.90
20524;DHT22;10420;48.542;12.270;2022-09-21T07:54:48;12.20;99.90
20524;DHT22;10420;48.542;12.270;2022-09-21T07:59:49;12.50;99.90
20524;DHT22;10420;48.542;12.270;2022-09-21T08:04:49;12.60;99.90
20524;DHT22;10420;48.542;12.270;2022-09-21T08:09:50;14.60;99.90
20524;DHT22;10420;48.542;12.270;2022-09-21T08:14:51;14.40;99.90
20524;DHT22;10420;48.542;12.270;2022-09-21T08:19:51;13.70;99.90
20524;DHT22;10420;48.542;12.270;2022-09-21T08:24:54;15.20;99.90
20524;DHT22;10420;48.542;12.270;2022-09-21T08:29:55;13.30;99.90
20524;DHT22;10420;48.542;12.270;2022-09-21T08:34:55;12.80;99.90
20524;DHT22;10420;48.542;12.270;2022-09-21T08:39:56;12.20;99.90
20524;DHT22;10420;48.542;12.270;2022-09-21T08:45:01;12.10;99.90
20524;DHT22;10420;48.542;12.270;2022-09-21T08:50:22;12.20;99.90
20524;DHT22;10420;48.542;12.270;2022-09-21T08:55:24;11.80;99.90
20524;DHT22;10420;48.542;12.270;2022-09-21T09:00:26;12.30;99.90
20524;DHT22;10420;48.542;12.270;2022-09-21T09:11:05;15.70;99.90
20524;DHT22;10420;48.542;12.270;2022-09-21T09:16:28;17.40;99.90
20524;DHT22;10420;48.542;12.270;2022-09-21T09:21:39;17.50;99.90
20524;DHT22;10420;48.542;12.270;2022-09-21T09:26:54;18.60;99.90
20524;DHT22;10420;48.542;12.270;2022-09-21T09:31:58;19.40;99.90
20524;DHT22;10420;48.542;12.270;2022-09-21T09:37:11;20.50;99.90
20524;DHT22;10420;48.542;12.270;2022-09-21T09:42:39;20.50;99.90
20524;DHT22;10420;48.542;12.270;2022-09-21T09:53:23;18.80;99.90
20524;DHT22;10420;48.542;12.270;2022-09-21T10:04:04;19.50;99.90
20524;DHT22;10420;48.542;12.270;2022-09-21T10:14:30;19.10;99.90
20524;DHT22;10420;48.542;12.270;2022-09-21T10:19:32;18.00;99.90
20524;DHT22;10420;48.542;12.270;2022-09-21T10:24:36;17.90;99.90
20524;DHT22;10420;48.542;12.270;2022-09-21T10:29:43;17.40;99.90
20524;DHT22;10420;48.542;12.270;2022-09-21T10:45:30;17.60;99.90
20524;DHT22;10420;48.542;12.270;2022-09-21T10:50:40;17.60;99.90
20524;DHT22;10420;48.542;12.270;2022-09-21T11:00:51;15.20;99.90
20524;DHT22;10420;48.542;12.270;2022-09-21T11:05:53;15.90;99.90
20524;DHT22;10420;48.542;12.270;2022-09-21T11:16:50;16.70;99.90
20524;DHT22;10420;48.542;12.270;2022-09-21T11:22:11;15.30;99.90
20524;DHT22;10420;48.542;12.270;2022-09-21T11:27:37;14.20;99.90
20524;DHT22;10420;48.542;12.270;2022-09-21T11:38:04;14.10;99.90
20524;DHT22;10420;48.542;12.270;2022-09-21T11:53:46;14.80;99.90
20524;DHT22;10420;48.542;12.270;2022-09-21T12:04:02;14.60;99.90
20524;DHT22;10420;48.542;12.270;2022-09-21T12:14:48;15.60;99.90
20524;DHT22;10420;48.542;12.270;2022-09-21T12:25:43;15.10;99.90
20524;DHT22;10420;48.542;12.270;2022-09-21T12:30:50;14.90;99.90
20524;DHT22;10420;48.542;12.270;2022-09-21T12:35:57;15.10;99.90
20524;DHT22;10420;48.542;12.270;2022-09-21T12:46:19;14.50;99.90
20524;DHT22;10420;48.542;12.270;2022-09-21T12:56:46;14.60;99.90
20524;DHT22;10420;48.542;12.270;2022-09-21T13:02:15;14.30;99.90
20524;DHT22;10420;48.542;12.270;2022-09-21T13:12:38;14.50;99.90
20524;DHT22;10420;48.542;12.270;2022-09-21T13:17:39;14.80;99.90
20524;DHT22;10420;48.542;12.270;2022-09-21T13:22:40;14.50;99.90
20524;DHT22;10420;48.542;12.270;2022-09-21T13:48:55;14.40;99.90
20524;DHT22;10420;48.542;12.270;2022-09-21T13:53:56;14.50;99.90
20524;DHT22;10420;48.542;12.270;2022-09-21T13:58:59;14.30;99.90
20524;DHT22;10420;48.542;12.270;2022-09-21T14:04:05;14.60;99.90
20524;DHT22;10420;48.542;12.270;2022-09-21T14:09:22;14.20;99.90
20524;DHT22;10420;48.542;12.270;2022-09-21T14:14:32;14.40;99.90
20524;DHT22;10420;48.542;12.270;2022-09-21T14:24:45;13.60;99.90
20524;DHT22;10420;48.542;12.270;2022-09-21T14:29:55;13.40;99.90
20524;DHT22;10420;48.542;12.270;2022-09-21T14:35:32;13.30;99.90
20524;DHT22;10420;48.542;12.270;2022-09-21T14:40:38;13.30;99.90
20524;DHT22;10420;48.542;12.270;2022-09-21T15:01:59;13.20;99.90
20524;DHT22;10420;48.542;12.270;2022-09-21T15:13:01;13.20;99.90
20524;DHT22;10420;48.542;12.270;2022-09-21T15:18:20;13.10;99.90
20524;DHT22;10420;48.542;12.270;2022-09-21T15:23:23;13.10;99.90
20524;DHT22;10420;48.542;12.270;2022-09-21T15:28:37;13.00;99.90
20524;DHT22;10420;48.542;12.270;2022-09-21T15:33:38;13.10;99.90
20524;DHT22;10420;48.542;12.270;2022-09-21T15:38:47;13.10;99.90
20524;DHT22;10420;48.542;12.270;2022-09-21T15:43:48;13.10;99.90
20524;DHT22;10420;48.542;12.270;2022-09-21T15:48:58;13.00;99.90
20524;DHT22;10420;48.542;12.270;2022-09-21T15:54:19;12.90;99.90
20524;DHT22;10420;48.542;12.270;2022-09-21T15:59:21;12.90;99.90
20524;DHT22;10420;48.542;12.270;2022-09-21T16:04:24;12.80;99.90
20524;DHT22;10420;48.542;12.270;2022-09-21T16:09:31;12.80;99.90
20524;DHT22;10420;48.542;12.270;2022-09-21T16:14:46;12.70;99.90
20524;DHT22;10420;48.542;12.270;2022-09-21T16:24:58;12.60;99.90
20524;DHT22;10420;48.542;12.270;2022-09-21T16:29:59;12.50;99.90
20524;DHT22;10420;48.542;12.270;2022-09-21T16:35:23;11.70;99.90
20524;DHT22;10420;48.542;12.270;2022-09-21T16:40:27;11.40;99.90
20524;DHT22;10420;48.542;12.270;2022-09-21T16:45:31;11.30;99.90
20524;DHT22;10420;48.542;12.270;2022-09-21T16:50:33;11.70;99.90
20524;DHT22;10420;48.542;12.270;2022-09-21T16:55:34;11.40;99.90
20524;DHT22;10420;48.542;12.270;2022-09-21T17:00:39;10.90;99.90
20524;DHT22;10420;48.542;12.270;2022-09-21T17:05:40;10.50;99.90
20524;DHT22;10420;48.542;12.270;2022-09-21T17:10:43;10.40;99.90
20524;DHT22;10420;48.542;12.270;2022-09-21T17:15:46;10.10;99.90
20524;DHT22;10420;48.542;12.270;2022-09-21T17:20:47;9.90;99.90
20524;DHT22;10420;48.542;12.270;2022-09-21T17:25:48;9.70;99.90
20524;DHT22;10420;48.542;12.270;2022-09-21T17:30:49;9.40;99.90
20524;DHT22;10420;48.542;12.270;2022-09-21T17:35:50;9.40;99.90
20524;DHT22;10420;48.542;12.270;2022-09-21T17:40:51;9.30;99.90
20524;DHT22;10420;48.542;12.270;2022-09-21T17:46:05;9.00;99.90
20524;DHT22;10420;48.542;12.270;2022-09-21T17:51:09;8.90;99.90
20524;DHT22;10420;48.542;12.270;2022-09-21T17:56:35;8.80;99.90
20524;DHT22;10420;48.542;12.270;2022-09-21T18:01:39;8.70;99.90
20524;DHT22;10420;48.542;12.270;2022-09-21T18:06:40;8.50;99.90
20524;DHT22;10420;48.542;12.270;2022-09-21T18:27:33;8.20;99.90
20524;DHT22;10420;48.542;12.270;2022-09-21T18:32:46;8.10;99.90
20524;DHT22;10420;48.542;12.270;2022-09-21T18:38:40;8.00;99.90
20524;DHT22;10420;48.542;12.270;2022-09-21T18:49:11;7.80;99.90
20524;DHT22;10420;48.542;12.270;2022-09-21T18:54:20;7.60;99.90
20524;DHT22;10420;48.542;12.270;2022-09-21T18:59:21;7.60;99.90
20524;DHT22;10420;48.542;12.270;2022-09-21T19:04:22;7.60;99.90
20524;DHT22;10420;48.542;12.270;2022-09-21T19:14:45;7.40;99.90
20524;DHT22;10420;48.542;12.270;2022-09-21T19:25:37;7.30;99.90
20524;DHT22;10420;48.542;12.270;2022-09-21T19:30:41;7.30;99.90
20524;DHT22;10420;48.542;12.270;2022-09-21T19:35:43;7.30;99.90
20524;DHT22;10420;48.542;12.270;2022-09-21T19:40:46;7.10;99.90
20524;DHT22;10420;48.542;12.270;2022-09-21T19:46:10;7.00;99.90
20524;DHT22;10420;48.542;12.270;2022-09-21T19:51:37;7.10;99.90
20524;DHT22;10420;48.542;12.270;2022-09-21T19:56:48;6.90;99.90
20524;DHT22;10420;48.542;12.270;2022-09-21T20:12:48;6.80;99.90
20524;DHT22;10420;48.542;12.270;2022-09-21T20:18:00;6.80;99.90
20524;DHT22;10420;48.542;12.270;2022-09-21T20:23:02;6.70;99.90
20524;DHT22;10420;48.542;12.270;2022-09-21T20:28:04;6.60;99.90
20524;DHT22;10420;48.542;12.270;2022-09-21T20:33:14;6.70;99.90
20524;DHT22;10420;48.542;12.270;2022-09-21T20:38:15;6.50;99.90
20524;DHT22;10420;48.542;12.270;2022-09-21T20:43:17;6.40;99.90
20524;DHT22;10420;48.542;12.270;2022-09-21T20:48:21;6.30;99.90
20524;DHT22;10420;48.542;12.270;2022-09-21T20:53:22;6.40;99.90
20524;DHT22;10420;48.542;12.270;2022-09-21T20:58:23;6.40;99.90
20524;DHT22;10420;48.542;12.270;2022-09-21T21:03:24;6.40;99.90
20524;DHT22;10420;48.542;12.270;2022-09-21T21:08:25;6.30;99.90
20524;DHT22;10420;48.542;12.270;2022-09-21T21:13:28;6.40;99.90
20524;DHT22;10420;48.542;12.270;2022-09-21T21:18:30;6.30;99.90
20524;DHT22;10420;48.542;12.270;2022-09-21T21:23:31;6.30;99.90
20524;DHT22;10420;48.542;12.270;2022-09-21T21:28:52;6.10;99.90
20524;DHT22;10420;48.542;12.270;2022-09-21T21:33:52;6.10;99.90
20524;DHT22;10420;48.542;12.270;2022-09-21T21:38:53;6.00;99.90
20524;DHT22;10420;48.542;12.270;2022-09-21T21:43:53;6.00;99.90
20524;DHT22;10420;48.542;12.270;2022-09-21T21:48:54;5.90;99.90
20524;DHT22;10420;48.542;12.270;2022-09-21T21:53:55;6.00;99.90
20524;DHT22;10420;48.542;12.270;2022-09-21T21:58:56;5.90;99.90
20524;DHT22;10420;48.542;12.270;2022-09-21T22:03:59;5.80;99.90
20524;DHT22;10420;48.542;12.270;2022-09-21T22:09:01;5.70;99.90
20524;DHT22;10420;48.542;12.270;2022-09-21T22:14:02;5.70;99.90
20524;DHT22;10420;48.542;12.270;2022-09-21T22:19:05;5.70;99.90
20524;DHT22;10420;48.542;12.270;2022-09-21T22:24:06;5.60;99.90
20524;DHT22;10420;48.542;12.270;2022-09-21T22:29:09;5.70;99.90
20524;DHT22;10420;48.542;12.270;2022-09-21T22:34:11;5.70;99.90
20524;DHT22;10420;48.542;12.270;2022-09-21T22:39:12;5.60;99.90
20524;DHT22;10420;48.542;12.270;2022-09-21T22:44:13;5.40;99.90
20524;DHT22;10420;48.542;12.270;2022-09-21T22:49:14;5.50;99.90
20524;DHT22;10420;48.542;12.270;2022-09-21T22:54:14;5.40;99.90
20524;DHT22;10420;48.542;12.270;2022-09-21T22:59:15;5.40;99.90
20524;DHT22;10420;48.542;12.270;2022-09-21T23:04:16;5.40;99.90
20524;DHT22;10420;48.542;12.270;2022-09-21T23:09:19;5.30;99.90
20524;DHT22;10420;48.542;12.270;2022-09-21T23:14:21;5.20;99.90
20524;DHT22;10420;48.542;12.270;2022-09-21T23:19:22;5.20;99.90
20524;DHT22;10420;48.542;12.270;2022-09-21T23:24:22;5.20;99.90
20524;DHT22;10420;48.542;12.270;2022-09-21T23:29:23;5.20;99.90
20524;DHT22;10420;48.542;12.270;2022-09-21T23:34:24;5.40;99.90
20524;DHT22;10420;48.542;12.270;2022-09-21T23:39:24;5.10;99.90
20524;DHT22;10420;48.542;12.270;2022-09-21T23:44:25;5.00;99.90
20524;DHT22;10420;48.542;12.270;2022-09-21T23:49:25;5.00;99.90
20524;DHT22;10420;48.542;12.270;2022-09-21T23:54:26;5.00;99.90
20524;DHT22;10420;48.542;12.270;2022-09-21T23:59:27;5.00;99.90
